Nagaleader — VRDD5 — position and weather

sailwx.info

Track history (hours):
 
Tides and Currents Weather Stations Pressure Air Temp Water Temp Dewpoint Dewpoint Depression Visibility Wind Speed Wind Dir Waves Ship Positions

Nagaleader

Last reported at 2014-Jul-25 20:33 UTC. Time now 2014-Jul-25 20:44 UTC.
Position N 22°48' E 120°06'.

Length 113 m; draft 5.7 m.

Type: Cargo ship. MMSI: 477926700.

Date/timePositionNaut miles runAvg speedWind from/ knotsBaromVisibWave heightAir tempDewpointWater temp
2014-Jul-25 20:33N 22°48' E 120°06'17810.3
2014-Jul-25 03:12N 25°46' E 119°54'2110.7
2014-Jul-25 01:13N 26°05' E 119°44'8 9.2
2014-Jul-25 00:21N 26°08' E 119°36'8 9.5
2014-Jul-24 23:33N 26°02' E 119°30'2 2.3
2014-Jul-24 22:33N 26°00' E 119°29'0 0.0
2014-Jul-24 21:33N 26°00' E 119°29'0 0.0
2014-Jul-24 20:33N 26°00' E 119°29'0 0.0
2014-Jul-24 19:33N 26°00' E 119°29'0 0.0
2014-Jul-24 18:33N 26°00' E 119°29'0 0.0
2014-Jul-24 17:33N 26°00' E 119°29'0 0.0
2014-Jul-24 16:33N 26°00' E 119°29'0 0.0
2014-Jul-24 15:33N 26°00' E 119°29'0 0.0
2014-Jul-24 14:33N 26°00' E 119°29'0 0.0
2014-Jul-24 13:33N 26°00' E 119°29'0 0.0
2014-Jul-24 12:33N 26°00' E 119°29'0 0.0
2014-Jul-24 11:33N 26°00' E 119°29'0 0.0
2014-Jul-24 10:33N 26°00' E 119°29'0 0.0
2014-Jul-24 09:33N 26°00' E 119°29'0 0.0
2014-Jul-24 08:33N 26°00' E 119°29'0 0.3
2014-Jul-24 07:33N 26°01' E 119°29'6 6.3
2014-Jul-24 06:32N 26°06' E 119°32'16 7.2
2014-Jul-24 04:16N 25°60' E 119°49'2 0.7
2014-Jul-24 01:08N 25°58' E 119°48'6411.4
2014-Jul-23 19:29N 24°58' E 119°21'1213.2
2014-Jul-23 18:33N 24°51' E 119°10'1313.2
2014-Jul-23 17:33N 24°43' E 118°58'1513.0
2014-Jul-23 16:25N 24°33' E 118°46'1112.9
2014-Jul-23 15:32N 24°25' E 118°37'1612.8
2014-Jul-23 14:18N 24°15' E 118°24'1012.8
2014-Jul-23 13:32N 24°08' E 118°16'1111.3
2014-Jul-23 12:34N 24°01' E 118°07'3 2.9
2014-Jul-23 11:33N 23°59' E 118°05'1413.9
2014-Jul-23 10:33N 23°50' E 117°53'1413.9
2014-Jul-23 09:33N 23°41' E 117°42'1413.6
2014-Jul-23 08:33N 23°32' E 117°30'7 6.8
2014-Jul-23 07:33N 23°31' E 117°23'0 0.0
2014-Jul-23 06:33N 23°31' E 117°23'0 0.0
2014-Jul-23 05:32N 23°31' E 117°23'0 0.0
2014-Jul-23 04:33N 23°31' E 117°23'0 0.1
2014-Jul-23 03:33N 23°31' E 117°23'0 0.0
2014-Jul-23 02:32N 23°31' E 117°23'0 0.1
2014-Jul-23 01:25N 23°31' E 117°23'0 0.0
2014-Jul-23 00:33N 23°31' E 117°23'0 0.0
2014-Jul-22 23:33N 23°31' E 117°23'0 0.0
2014-Jul-22 22:33N 23°31' E 117°23'0 0.0
2014-Jul-22 21:33N 23°31' E 117°23'0 0.0
2014-Jul-22 20:33N 23°31' E 117°23'0 0.1
2014-Jul-22 19:33N 23°31' E 117°23'0 0.0
2014-Jul-22 18:33N 23°31' E 117°23'0 0.0
2014-Jul-22 17:33N 23°31' E 117°23'0 0.1
2014-Jul-22 16:32N 23°30' E 117°23'0 0.1
2014-Jul-22 14:32N 23°31' E 117°23'0 0.1
2014-Jul-22 13:31N 23°31' E 117°23'0 0.1
2014-Jul-22 12:33N 23°31' E 117°23'0 0.0
2014-Jul-22 11:33N 23°31' E 117°23'0 0.0
2014-Jul-22 10:33N 23°31' E 117°23'0 0.0
2014-Jul-22 09:33N 23°31' E 117°23'0 0.0
2014-Jul-22 08:32N 23°31' E 117°23'6 5.8
2014-Jul-22 07:33N 23°31' E 117°29'1312.5
2014-Jul-22 06:33N 23°30' E 117°43'1612.7
2014-Jul-22 05:19N 23°28' E 117°60'7612.3
2014-Jul-21 23:08N 23°12' E 119°20'2513.3
2014-Jul-21 21:16N 22°56' E 119°41'1013.5
2014-Jul-21 20:31N 22°49' E 119°48'313.5
2014-Jul-21 20:18N 22°47' E 119°51'1013.0
2014-Jul-21 19:33N 22°40' E 119°59'1212.4
2014-Jul-21 18:33N 22°33' E 120°09'10 9.7
2014-Jul-21 17:32N 22°33' E 120°20'0 0.1
2014-Jul-21 16:28N 22°33' E 120°20'0 0.0
2014-Jul-21 15:33N 22°33' E 120°20'0 0.0
2014-Jul-21 14:14N 22°33' E 120°20'0 0.0
2014-Jul-21 13:31N 22°33' E 120°20'0 0.0
2014-Jul-21 12:31N 22°33' E 120°20'0 0.0
2014-Jul-21 11:26N 22°33' E 120°20'0 0.0
2014-Jul-21 10:11N 22°33' E 120°20'0 0.0
2014-Jul-21 08:12N 22°33' E 120°20'3 3.8
2014-Jul-21 07:28N 22°32' E 120°17'1 0.7
2014-Jul-21 06:32N 22°32' E 120°18'0 0.0
2014-Jul-21 05:11N 22°32' E 120°18'0 0.0
2014-Jul-21 04:29N 22°32' E 120°18'0 0.0
2014-Jul-21 03:29N 22°32' E 120°18'0 0.2
2014-Jul-21 02:33N 22°32' E 120°18'1111.3
2014-Jul-21 01:32N 22°39' E 120°09'15511.0
2014-Jul-20 11:27N 25°14' E 119°58'1312.1
2014-Jul-20 10:21N 25°27' E 119°58'2512.6
2014-Jul-20 08:24N 25°51' E 119°53'1511.5
2014-Jul-20 07:06N 26°05' E 119°46'13 8.5
2014-Jul-20 05:33N 26°04' E 119°31'5 5.0
2014-Jul-20 04:33N 26°00' E 119°29'0 0.0
2014-Jul-20 03:23N 26°00' E 119°29'0 0.0
2014-Jul-20 02:29N 26°00' E 119°29'0 0.1
2014-Jul-20 01:29N 26°00' E 119°29'0 0.0
2014-Jul-20 00:29N 26°00' E 119°29'0 0.1
2014-Jul-19 23:29N 26°00' E 119°29'0 0.1
2014-Jul-19 22:29N 26°00' E 119°29'0 0.0
2014-Jul-19 21:29N 26°00' E 119°29'0 0.0
2014-Jul-19 20:23N 26°00' E 119°29'0 0.1
2014-Jul-19 19:29N 26°00' E 119°29'0 0.1
2014-Jul-19 18:29N 26°00' E 119°29'0 0.0
2014-Jul-19 17:29N 26°00' E 119°29'0 0.0
2014-Jul-19 16:29N 26°00' E 119°29'0 0.0
2014-Jul-19 15:23N 26°00' E 119°29'0 0.0
2014-Jul-19 14:29N 26°00' E 119°29'0 0.0
2014-Jul-19 13:29N 26°00' E 119°29'0 0.0
2014-Jul-19 12:29N 26°00' E 119°29'0 0.0
2014-Jul-19 11:29N 26°00' E 119°29'0 0.0
2014-Jul-19 10:29N 26°00' E 119°29'0 0.0
2014-Jul-19 09:29N 26°00' E 119°29'0 0.0
2014-Jul-19 08:29N 26°00' E 119°29'0 0.1
2014-Jul-19 07:29N 26°00' E 119°29'0 0.1
2014-Jul-19 06:33N 26°00' E 119°29'5 5.0
2014-Jul-19 05:33N 26°05' E 119°31'21 9.4
2014-Jul-19 03:22N 25°55' E 119°52'18013.7
2014-Jul-18 14:14N 22°56' E 120°02'913.6
2014-Jul-18 13:33N 22°47' E 120°06'1212.4
2014-Jul-18 12:33N 22°36' E 120°12'7 6.7
2014-Jul-18 11:33N 22°34' E 120°19'0 0.1
2014-Jul-18 10:33N 22°34' E 120°19'0 0.0
2014-Jul-18 09:32N 22°34' E 120°19'0 0.0
2014-Jul-18 08:32N 22°34' E 120°19'0 0.0
2014-Jul-18 07:32N 22°34' E 120°19'0 0.0
2014-Jul-18 06:26N 22°34' E 120°19'0 0.0
2014-Jul-18 05:32N 22°34' E 120°19'0 0.0
2014-Jul-18 04:32N 22°34' E 120°19'0 0.0
2014-Jul-18 03:32N 22°34' E 120°19'1 1.3
2014-Jul-18 02:33N 22°33' E 120°18'1 0.8
2014-Jul-18 01:23N 22°32' E 120°17'0 0.1
2014-Jul-18 00:23N 22°32' E 120°17'1 0.9
2014-Jul-17 23:33N 22°32' E 120°16'1111.2
2014-Jul-17 22:33N 22°40' E 120°09'15410.8
2014-Jul-17 08:14N 25°14' E 119°58'1012.5
2014-Jul-17 07:26N 25°24' E 119°58'4213.1
2014-Jul-17 04:13N 26°05' E 119°46'4 5.5
2014-Jul-17 03:32N 26°06' E 119°42'9 9.0
2014-Jul-17 02:33N 26°05' E 119°32'6 6.0
2014-Jul-17 01:33N 26°00' E 119°29'0 0.0
2014-Jul-17 00:25N 26°00' E 119°29'0 0.0
2014-Jul-16 23:31N 26°00' E 119°29'0 0.0
2014-Jul-16 22:31N 26°00' E 119°29'0 0.0
2014-Jul-16 21:25N 26°00' E 119°29'0 0.0
2014-Jul-16 20:31N 26°00' E 119°29'0 0.0
2014-Jul-16 19:19N 26°00' E 119°29'0 0.1
2014-Jul-16 18:31N 26°00' E 119°29'0 0.1
2014-Jul-16 17:31N 26°00' E 119°29'0 0.1
2014-Jul-16 16:31N 26°00' E 119°29'0 0.0
2014-Jul-16 15:19N 26°00' E 119°29'0 0.0
2014-Jul-16 14:31N 26°00' E 119°29'0 0.0
2014-Jul-16 13:31N 26°00' E 119°29'0 0.0
2014-Jul-16 12:31N 26°00' E 119°29'0 0.0
2014-Jul-16 11:31N 26°00' E 119°29'0 0.1
2014-Jul-16 10:31N 26°00' E 119°29'0 0.1
2014-Jul-16 09:31N 26°00' E 119°29'0 0.0
2014-Jul-16 08:31N 26°00' E 119°29'0 0.0
2014-Jul-16 07:31N 26°00' E 119°29'0 0.0
2014-Jul-16 06:31N 26°00' E 119°29'0 0.0
2014-Jul-16 05:25N 26°00' E 119°29'0 0.1
2014-Jul-16 04:31N 26°00' E 119°29'0 0.1
2014-Jul-16 03:31N 26°00' E 119°29'0 0.0
2014-Jul-16 02:31N 26°00' E 119°29'0 0.0
2014-Jul-16 01:31N 26°00' E 119°29'0 0.0
2014-Jul-16 00:31N 26°00' E 119°29'0 0.0
2014-Jul-15 23:31N 26°00' E 119°29'0 0.1
2014-Jul-15 22:31N 26°00' E 119°29'0 0.1
2014-Jul-15 21:31N 26°00' E 119°29'  
Track history (hours):
 
Tides and Currents Weather Stations Pressure Air Temp Water Temp Dewpoint Dewpoint Depression Visibility Wind Speed Wind Dir Waves Ship Positions

Nagaleader

Last reported at 2014-Jul-25 20:33 UTC. Time now 2014-Jul-25 20:44 UTC.
Position N 22°48' E 120°06'.

Length 113 m; draft 5.7 m.

Type: Cargo ship. MMSI: 477926700.

Date/timePositionNaut miles runAvg speedWind from/ knotsBaromVisibWave heightAir tempDewpointWater temp
2014-Jul-25 20:33N 22°48' E 120°06'17810.3
2014-Jul-25 03:12N 25°46' E 119°54'2110.7
2014-Jul-25 01:13N 26°05' E 119°44'8 9.2
2014-Jul-25 00:21N 26°08' E 119°36'8 9.5
2014-Jul-24 23:33N 26°02' E 119°30'2 2.3
2014-Jul-24 22:33N 26°00' E 119°29'0 0.0
2014-Jul-24 21:33N 26°00' E 119°29'0 0.0
2014-Jul-24 20:33N 26°00' E 119°29'0 0.0
2014-Jul-24 19:33N 26°00' E 119°29'0 0.0
2014-Jul-24 18:33N 26°00' E 119°29'0 0.0
2014-Jul-24 17:33N 26°00' E 119°29'0 0.0
2014-Jul-24 16:33N 26°00' E 119°29'0 0.0
2014-Jul-24 15:33N 26°00' E 119°29'0 0.0
2014-Jul-24 14:33N 26°00' E 119°29'0 0.0
2014-Jul-24 13:33N 26°00' E 119°29'0 0.0
2014-Jul-24 12:33N 26°00' E 119°29'0 0.0
2014-Jul-24 11:33N 26°00' E 119°29'0 0.0
2014-Jul-24 10:33N 26°00' E 119°29'0 0.0
2014-Jul-24 09:33N 26°00' E 119°29'0 0.0
2014-Jul-24 08:33N 26°00' E 119°29'0 0.3
2014-Jul-24 07:33N 26°01' E 119°29'6 6.3
2014-Jul-24 06:32N 26°06' E 119°32'16 7.2
2014-Jul-24 04:16N 25°60' E 119°49'2 0.7
2014-Jul-24 01:08N 25°58' E 119°48'6411.4
2014-Jul-23 19:29N 24°58' E 119°21'1213.2
2014-Jul-23 18:33N 24°51' E 119°10'1313.2
2014-Jul-23 17:33N 24°43' E 118°58'1513.0
2014-Jul-23 16:25N 24°33' E 118°46'1112.9
2014-Jul-23 15:32N 24°25' E 118°37'1612.8
2014-Jul-23 14:18N 24°15' E 118°24'1012.8
2014-Jul-23 13:32N 24°08' E 118°16'1111.3
2014-Jul-23 12:34N 24°01' E 118°07'3 2.9
2014-Jul-23 11:33N 23°59' E 118°05'1413.9
2014-Jul-23 10:33N 23°50' E 117°53'1413.9
2014-Jul-23 09:33N 23°41' E 117°42'1413.6
2014-Jul-23 08:33N 23°32' E 117°30'7 6.8
2014-Jul-23 07:33N 23°31' E 117°23'0 0.0
2014-Jul-23 06:33N 23°31' E 117°23'0 0.0
2014-Jul-23 05:32N 23°31' E 117°23'0 0.0
2014-Jul-23 04:33N 23°31' E 117°23'0 0.1
2014-Jul-23 03:33N 23°31' E 117°23'0 0.0
2014-Jul-23 02:32N 23°31' E 117°23'0 0.1
2014-Jul-23 01:25N 23°31' E 117°23'0 0.0
2014-Jul-23 00:33N 23°31' E 117°23'0 0.0
2014-Jul-22 23:33N 23°31' E 117°23'0 0.0
2014-Jul-22 22:33N 23°31' E 117°23'0 0.0
2014-Jul-22 21:33N 23°31' E 117°23'0 0.0
2014-Jul-22 20:33N 23°31' E 117°23'0 0.1
2014-Jul-22 19:33N 23°31' E 117°23'0 0.0
2014-Jul-22 18:33N 23°31' E 117°23'0 0.0
2014-Jul-22 17:33N 23°31' E 117°23'0 0.1
2014-Jul-22 16:32N 23°30' E 117°23'0 0.1
2014-Jul-22 14:32N 23°31' E 117°23'0 0.1
2014-Jul-22 13:31N 23°31' E 117°23'0 0.1
2014-Jul-22 12:33N 23°31' E 117°23'0 0.0
2014-Jul-22 11:33N 23°31' E 117°23'0 0.0
2014-Jul-22 10:33N 23°31' E 117°23'0 0.0
2014-Jul-22 09:33N 23°31' E 117°23'0 0.0
2014-Jul-22 08:32N 23°31' E 117°23'6 5.8
2014-Jul-22 07:33N 23°31' E 117°29'1312.5
2014-Jul-22 06:33N 23°30' E 117°43'1612.7
2014-Jul-22 05:19N 23°28' E 117°60'7612.3
2014-Jul-21 23:08N 23°12' E 119°20'2513.3
2014-Jul-21 21:16N 22°56' E 119°41'1013.5
2014-Jul-21 20:31N 22°49' E 119°48'313.5
2014-Jul-21 20:18N 22°47' E 119°51'1013.0
2014-Jul-21 19:33N 22°40' E 119°59'1212.4
2014-Jul-21 18:33N 22°33' E 120°09'10 9.7
2014-Jul-21 17:32N 22°33' E 120°20'0 0.1
2014-Jul-21 16:28N 22°33' E 120°20'0 0.0
2014-Jul-21 15:33N 22°33' E 120°20'0 0.0
2014-Jul-21 14:14N 22°33' E 120°20'0 0.0
2014-Jul-21 13:31N 22°33' E 120°20'0 0.0
2014-Jul-21 12:31N 22°33' E 120°20'0 0.0
2014-Jul-21 11:26N 22°33' E 120°20'0 0.0
2014-Jul-21 10:11N 22°33' E 120°20'0 0.0
2014-Jul-21 08:12N 22°33' E 120°20'3 3.8
2014-Jul-21 07:28N 22°32' E 120°17'1 0.7
2014-Jul-21 06:32N 22°32' E 120°18'0 0.0
2014-Jul-21 05:11N 22°32' E 120°18'0 0.0
2014-Jul-21 04:29N 22°32' E 120°18'0 0.0
2014-Jul-21 03:29N 22°32' E 120°18'0 0.2
2014-Jul-21 02:33N 22°32' E 120°18'1111.3
2014-Jul-21 01:32N 22°39' E 120°09'15511.0
2014-Jul-20 11:27N 25°14' E 119°58'1312.1
2014-Jul-20 10:21N 25°27' E 119°58'2512.6
2014-Jul-20 08:24N 25°51' E 119°53'1511.5
2014-Jul-20 07:06N 26°05' E 119°46'13 8.5
2014-Jul-20 05:33N 26°04' E 119°31'5 5.0
2014-Jul-20 04:33N 26°00' E 119°29'0 0.0
2014-Jul-20 03:23N 26°00' E 119°29'0 0.0
2014-Jul-20 02:29N 26°00' E 119°29'0 0.1
2014-Jul-20 01:29N 26°00' E 119°29'0 0.0
2014-Jul-20 00:29N 26°00' E 119°29'0 0.1
2014-Jul-19 23:29N 26°00' E 119°29'0 0.1
2014-Jul-19 22:29N 26°00' E 119°29'0 0.0
2014-Jul-19 21:29N 26°00' E 119°29'0 0.0
2014-Jul-19 20:23N 26°00' E 119°29'0 0.1
2014-Jul-19 19:29N 26°00' E 119°29'0 0.1
2014-Jul-19 18:29N 26°00' E 119°29'0 0.0
2014-Jul-19 17:29N 26°00' E 119°29'0 0.0
2014-Jul-19 16:29N 26°00' E 119°29'0 0.0
2014-Jul-19 15:23N 26°00' E 119°29'0 0.0
2014-Jul-19 14:29N 26°00' E 119°29'0 0.0
2014-Jul-19 13:29N 26°00' E 119°29'0 0.0
2014-Jul-19 12:29N 26°00' E 119°29'0 0.0
2014-Jul-19 11:29N 26°00' E 119°29'0 0.0
2014-Jul-19 10:29N 26°00' E 119°29'0 0.0
2014-Jul-19 09:29N 26°00' E 119°29'0 0.0
2014-Jul-19 08:29N 26°00' E 119°29'0 0.1
2014-Jul-19 07:29N 26°00' E 119°29'0 0.1
2014-Jul-19 06:33N 26°00' E 119°29'5 5.0
2014-Jul-19 05:33N 26°05' E 119°31'21 9.4
2014-Jul-19 03:22N 25°55' E 119°52'18013.7
2014-Jul-18 14:14N 22°56' E 120°02'913.6
2014-Jul-18 13:33N 22°47' E 120°06'1212.4
2014-Jul-18 12:33N 22°36' E 120°12'7 6.7
2014-Jul-18 11:33N 22°34' E 120°19'0 0.1
2014-Jul-18 10:33N 22°34' E 120°19'0 0.0
2014-Jul-18 09:32N 22°34' E 120°19'0 0.0
2014-Jul-18 08:32N 22°34' E 120°19'0 0.0
2014-Jul-18 07:32N 22°34' E 120°19'0 0.0
2014-Jul-18 06:26N 22°34' E 120°19'0 0.0
2014-Jul-18 05:32N 22°34' E 120°19'0 0.0
2014-Jul-18 04:32N 22°34' E 120°19'0 0.0
2014-Jul-18 03:32N 22°34' E 120°19'1 1.3
2014-Jul-18 02:33N 22°33' E 120°18'1 0.8
2014-Jul-18 01:23N 22°32' E 120°17'0 0.1
2014-Jul-18 00:23N 22°32' E 120°17'1 0.9
2014-Jul-17 23:33N 22°32' E 120°16'1111.2
2014-Jul-17 22:33N 22°40' E 120°09'15410.8
2014-Jul-17 08:14N 25°14' E 119°58'1012.5
2014-Jul-17 07:26N 25°24' E 119°58'4213.1
2014-Jul-17 04:13N 26°05' E 119°46'4 5.5
2014-Jul-17 03:32N 26°06' E 119°42'9 9.0
2014-Jul-17 02:33N 26°05' E 119°32'6 6.0
2014-Jul-17 01:33N 26°00' E 119°29'0 0.0
2014-Jul-17 00:25N 26°00' E 119°29'0 0.0
2014-Jul-16 23:31N 26°00' E 119°29'0 0.0
2014-Jul-16 22:31N 26°00' E 119°29'0 0.0
2014-Jul-16 21:25N 26°00' E 119°29'0 0.0
2014-Jul-16 20:31N 26°00' E 119°29'0 0.0
2014-Jul-16 19:19N 26°00' E 119°29'0 0.1
2014-Jul-16 18:31N 26°00' E 119°29'0 0.1
2014-Jul-16 17:31N 26°00' E 119°29'0 0.1
2014-Jul-16 16:31N 26°00' E 119°29'0 0.0
2014-Jul-16 15:19N 26°00' E 119°29'0 0.0
2014-Jul-16 14:31N 26°00' E 119°29'0 0.0
2014-Jul-16 13:31N 26°00' E 119°29'0 0.0
2014-Jul-16 12:31N 26°00' E 119°29'0 0.0
2014-Jul-16 11:31N 26°00' E 119°29'0 0.1
2014-Jul-16 10:31N 26°00' E 119°29'0 0.1
2014-Jul-16 09:31N 26°00' E 119°29'0 0.0
2014-Jul-16 08:31N 26°00' E 119°29'0 0.0
2014-Jul-16 07:31N 26°00' E 119°29'0 0.0
2014-Jul-16 06:31N 26°00' E 119°29'0 0.0
2014-Jul-16 05:25N 26°00' E 119°29'0 0.1
2014-Jul-16 04:31N 26°00' E 119°29'0 0.1
2014-Jul-16 03:31N 26°00' E 119°29'0 0.0
2014-Jul-16 02:31N 26°00' E 119°29'0 0.0
2014-Jul-16 01:31N 26°00' E 119°29'0 0.0
2014-Jul-16 00:31N 26°00' E 119°29'0 0.0
2014-Jul-15 23:31N 26°00' E 119°29'0 0.1
2014-Jul-15 22:31N 26°00' E 119°29'0 0.1
2014-Jul-15 21:31N 26°00' E 119°29'  

Dump ship's entire track history